Time;durP1;ratioP1;P1;durP2;ratioP2;P2;SDS_P1;SDS_P2;PMS_P1;PMS_P2;Temp;Humidity;BMP_temperature;BMP_pressure;BME280_temperature;BME280_humidity;BME280_pressure;Samples;Min_cycle;Max_cycle;Signal;HPM_P1;HPM_P2
2022/08/23 00:00:32;;;;;;;13.77;8.57;;;;;;;;;;5021374;28;20034;-76
2022/08/23 00:02:58;;;;;;;13.15;9.27;;;;;;;;;;5023352;28;20136;-75
2022/08/23 00:05:23;;;;;;;16.80;9.30;;;;;;;;;;5022886;28;20352;-75
2022/08/23 00:07:49;;;;;;;9.82;8.68;;;;;;;;;;5012053;28;20040;-74
2022/08/23 00:10:15;;;;;;;10.93;9.10;;;;;;;;;;5016343;28;20371;-75
2022/08/23 00:12:41;;;;;;;13.25;9.18;;;;;;;;;;5016291;28;20061;-75
2022/08/23 00:15:08;;;;;;;10.50;9.18;;;;;;;;;;4994644;28;20476;-75
2022/08/23 00:17:33;;;;;;;10.52;9.30;;;;;;;;;;5010258;28;20738;-75
2022/08/23 00:19:58;;;;;;;12.10;10.07;;;;;;;;;;5020617;28;20452;-74
2022/08/23 00:22:24;;;;;;;10.98;9.98;;;;;;;;;;5001801;28;20029;-74
2022/08/23 00:24:49;;;;;;;10.43;9.43;;;;;;;;;;5020981;28;20117;-74
2022/08/23 00:27:15;;;;;;;11.15;9.98;;;;;;;;;;5020789;28;20068;-75
2022/08/23 00:29:51;;;;;;;11.60;9.73;;;;;;;;;;5013287;28;20053;-75
2022/08/23 00:32:18;;;;;;;10.60;9.52;;;;;;;;;;5010821;28;20420;-74
2022/08/23 00:34:44;;;;;;;11.13;9.75;;;;;;;;;;5020575;28;20139;-75
2022/08/23 00:37:10;;;;;;;10.55;9.43;;;;;;;;;;5021541;28;20124;-75
2022/08/23 00:39:36;;;;;;;13.85;9.15;;;;;;;;;;5009895;28;20041;-75
2022/08/23 00:47:38;;;;;;;14.05;9.65;;;;;;;;;;5020513;28;20056;-75
2022/08/23 00:47:39;;;;;;;10.88;9.77;;;;;;;;;;5020285;28;20040;-75
2022/08/23 00:50:14;;;;;;;11.60;10.40;;;;;;;;;;5021086;28;20037;-75
2022/08/23 00:52:48;;;;;;;11.80;10.68;;;;;;;;;;5021741;28;20448;-75
2022/08/23 00:55:15;;;;;;;12.73;10.30;;;;;;;;;;5020501;28;20124;-75
2022/08/23 00:57:40;;;;;;;10.20;9.30;;;;;;;;;;5019510;28;20025;-76
2022/08/23 01:00:07;;;;;;;10.70;9.70;;;;;;;;;;5012324;28;20384;-75
2022/08/23 01:02:32;;;;;;;10.82;9.73;;;;;;;;;;5022250;28;20535;-75
2022/08/23 01:04:58;;;;;;;15.30;9.70;;;;;;;;;;5019984;28;20120;-75
2022/08/23 01:07:34;;;;;;;12.75;8.98;;;;;;;;;;5011507;28;20094;-74
2022/08/23 01:10:01;;;;;;;10.32;9.20;;;;;;;;;;5016075;28;20033;-74
2022/08/23 01:12:33;;;;;;;16.85;10.13;;;;;;;;;;5011076;28;20423;-74
2022/08/23 01:15:01;;;;;;;11.40;10.10;;;;;;;;;;5015005;28;20083;-73
2022/08/23 01:17:29;;;;;;;11.90;10.10;;;;;;;;;;5020549;28;20542;-75
2022/08/23 01:20:05;;;;;;;11.02;9.85;;;;;;;;;;5021653;28;20472;-73
2022/08/23 01:22:36;;;;;;;11.00;9.73;;;;;;;;;;5020218;28;20033;-74
2022/08/23 01:25:04;;;;;;;11.18;9.43;;;;;;;;;;5000739;28;20375;-74
2022/08/23 01:27:29;;;;;;;12.48;9.77;;;;;;;;;;5013536;28;20428;-76
2022/08/23 01:29:54;;;;;;;10.43;9.40;;;;;;;;;;5021880;28;20044;-75
2022/08/23 01:32:20;;;;;;;10.88;9.38;;;;;;;;;;5020582;28;20437;-74
2022/08/23 01:34:45;;;;;;;10.68;9.13;;;;;;;;;;5020610;28;20029;-74
2022/08/23 01:37:11;;;;;;;11.45;9.45;;;;;;;;;;5021108;28;20037;-74
2022/08/23 01:39:37;;;;;;;10.70;9.60;;;;;;;;;;5018781;28;20043;-74
2022/08/23 01:42:03;;;;;;;11.30;9.75;;;;;;;;;;5019284;28;20514;-74
2022/08/23 01:44:28;;;;;;;13.27;9.68;;;;;;;;;;5019378;28;20498;-74
2022/08/23 01:46:54;;;;;;;10.60;9.48;;;;;;;;;;5020044;28;20036;-73
2022/08/23 01:49:19;;;;;;;11.13;10.00;;;;;;;;;;5021141;28;20037;-74
2022/08/23 01:51:45;;;;;;;11.57;9.82;;;;;;;;;;5018714;28;20403;-73
2022/08/23 01:54:10;;;;;;;10.73;9.63;;;;;;;;;;5001416;28;20021;-74
2022/08/23 01:56:36;;;;;;;10.27;9.27;;;;;;;;;;5018747;28;20036;-75
2022/08/23 01:59:02;;;;;;;12.57;9.82;;;;;;;;;;5020740;28;20124;-75
2022/08/23 02:01:28;;;;;;;13.32;9.82;;;;;;;;;;5018276;28;21108;-73
2022/08/23 02:03:54;;;;;;;11.98;10.02;;;;;;;;;;5019906;28;20021;-73
2022/08/23 02:06:20;;;;;;;11.27;10.07;;;;;;;;;;5020447;28;20105;-73
2022/08/23 02:09:01;;;;;;;11.13;10.02;;;;;;;;;;5020321;28;20025;-75
2022/08/23 02:11:27;;;;;;;12.07;10.88;;;;;;;;;;5022485;28;20433;-73
2022/08/23 02:13:54;;;;;;;11.35;10.13;;;;;;;;;;5024002;28;20021;-73
2022/08/23 02:16:21;;;;;;;13.32;9.57;;;;;;;;;;5023877;28;20164;-74
2022/08/23 02:18:46;;;;;;;11.18;10.15;;;;;;;;;;5023368;28;20423;-75
2022/08/23 02:21:11;;;;;;;10.43;9.45;;;;;;;;;;5025938;28;20037;-74
2022/08/23 02:23:37;;;;;;;11.10;10.00;;;;;;;;;;5015560;28;20075;-74
2022/08/23 02:26:02;;;;;;;12.13;9.98;;;;;;;;;;5021911;28;20060;-75
2022/08/23 02:28:27;;;;;;;10.35;9.30;;;;;;;;;;5023511;28;20038;-74
2022/08/23 02:30:53;;;;;;;11.50;9.50;;;;;;;;;;5024153;28;20033;-74
2022/08/23 02:33:18;;;;;;;11.00;9.70;;;;;;;;;;5022378;28;20067;-74
2022/08/23 02:35:43;;;;;;;12.25;9.90;;;;;;;;;;5020916;28;20029;-73
2022/08/23 02:38:10;;;;;;;10.90;9.55;;;;;;;;;;5015676;28;20021;-74
2022/08/23 02:40:37;;;;;;;13.77;9.93;;;;;;;;;;5023204;28;20021;-75
2022/08/23 02:43:03;;;;;;;13.63;10.15;;;;;;;;;;5023828;28;21182;-73
2022/08/23 02:45:28;;;;;;;10.60;9.50;;;;;;;;;;5023238;28;20098;-74
2022/08/23 02:47:54;;;;;;;11.13;9.93;;;;;;;;;;5023487;28;20433;-74
2022/08/23 02:50:20;;;;;;;11.68;10.48;;;;;;;;;;5021989;28;20034;-75
2022/08/23 02:52:46;;;;;;;11.40;9.73;;;;;;;;;;5013772;28;20061;-75
2022/08/23 02:55:11;;;;;;;10.95;9.85;;;;;;;;;;5026602;28;20030;-77
2022/08/23 02:57:38;;;;;;;13.90;10.52;;;;;;;;;;5015695;28;20400;-76
2022/08/23 03:00:06;;;;;;;10.25;9.25;;;;;;;;;;5021765;28;20107;-74
2022/08/23 03:02:31;;;;;;;11.23;9.57;;;;;;;;;;5022646;28;20033;-74
2022/08/23 03:04:56;;;;;;;12.50;10.65;;;;;;;;;;5023893;28;20429;-73
2022/08/23 03:07:22;;;;;;;11.32;10.20;;;;;;;;;;5022065;28;20424;-75
2022/08/23 03:09:47;;;;;;;12.45;11.15;;;;;;;;;;5024829;28;20098;-76
2022/08/23 03:12:13;;;;;;;12.25;11.05;;;;;;;;;;5024257;28;20029;-75
2022/08/23 03:14:38;;;;;;;13.43;11.77;;;;;;;;;;5023904;28;20026;-75
2022/08/23 03:17:04;;;;;;;12.05;10.82;;;;;;;;;;5023453;28;20376;-73
2022/08/23 03:19:29;;;;;;;12.95;10.85;;;;;;;;;;5019799;28;20432;-74
2022/08/23 03:21:55;;;;;;;13.05;11.65;;;;;;;;;;5010054;28;20071;-74
2022/08/23 03:24:20;;;;;;;14.05;12.68;;;;;;;;;;5014150;28;20025;-76
2022/08/23 03:26:45;;;;;;;13.00;11.70;;;;;;;;;;5009771;28;20022;-74
2022/08/23 03:29:11;;;;;;;14.43;12.60;;;;;;;;;;5010287;28;20033;-76
2022/08/23 03:31:36;;;;;;;12.88;11.43;;;;;;;;;;5011473;28;20113;-75
2022/08/23 03:34:03;;;;;;;13.07;11.75;;;;;;;;;;5012160;28;20057;-74
2022/08/23 03:36:28;;;;;;;12.65;11.45;;;;;;;;;;5009508;28;20032;-75
2022/08/23 03:38:54;;;;;;;13.02;11.82;;;;;;;;;;5010673;28;20101;-75
2022/08/23 03:41:19;;;;;;;13.27;10.73;;;;;;;;;;5010558;28;20056;-74
2022/08/23 03:43:45;;;;;;;12.40;11.02;;;;;;;;;;5011273;28;20083;-74
2022/08/23 03:46:21;;;;;;;14.43;10.63;;;;;;;;;;5010300;28;20144;-75
2022/08/23 03:48:48;;;;;;;15.07;10.05;;;;;;;;;;5010380;28;20149;-74
2022/08/23 03:51:13;;;;;;;11.85;10.02;;;;;;;;;;5009786;28;20408;-74
2022/08/23 03:53:38;;;;;;;14.00;8.65;;;;;;;;;;5010396;28;20113;-74
2022/08/23 03:56:04;;;;;;;9.57;8.23;;;;;;;;;;5010667;28;20037;-75
2022/08/23 03:58:30;;;;;;;10.07;8.27;;;;;;;;;;5010004;28;20033;-75
2022/08/23 04:00:56;;;;;;;10.38;8.20;;;;;;;;;;5008877;28;20033;-75
2022/08/23 04:03:21;;;;;;;10.80;9.40;;;;;;;;;;5009565;28;20013;-75
2022/08/23 04:05:47;;;;;;;11.40;9.77;;;;;;;;;;5010600;28;20121;-75
2022/08/23 04:08:12;;;;;;;10.88;9.80;;;;;;;;;;5009651;28;20036;-76
2022/08/23 04:10:38;;;;;;;12.90;9.93;;;;;;;;;;5010764;28;20037;-76
2022/08/23 04:13:04;;;;;;;15.07;10.07;;;;;;;;;;5019145;28;20017;-75
2022/08/23 04:15:29;;;;;;;11.07;9.68;;;;;;;;;;5021403;28;20448;-74
2022/08/23 04:17:57;;;;;;;10.52;9.60;;;;;;;;;;5012334;28;20053;-73
2022/08/23 04:20:22;;;;;;;11.48;10.07;;;;;;;;;;5014691;28;20037;-76
2022/08/23 04:22:51;;;;;;;13.27;9.85;;;;;;;;;;5013961;28;22032;-76
2022/08/23 04:25:17;;;;;;;12.77;10.82;;;;;;;;;;5018189;28;20056;-77
2022/08/23 04:27:42;;;;;;;12.57;11.38;;;;;;;;;;5022647;28;20463;-75
2022/08/23 04:30:08;;;;;;;13.25;10.75;;;;;;;;;;5022667;28;20029;-75
2022/08/23 04:32:33;;;;;;;13.40;11.77;;;;;;;;;;5021610;28;20159;-74
2022/08/23 04:34:58;;;;;;;12.63;11.30;;;;;;;;;;5021028;28;20041;-75
2022/08/23 04:37:24;;;;;;;15.13;11.20;;;;;;;;;;5016106;28;20175;-75
2022/08/23 04:42:33;;;;;;;12.27;10.57;;;;;;;;;;5020476;28;20152;-74
2022/08/23 04:45:00;;;;;;;11.57;9.77;;;;;;;;;;5023811;28;20113;-75
2022/08/23 04:47:25;;;;;;;11.13;10.02;;;;;;;;;;5018896;28;20368;-75
2022/08/23 04:49:50;;;;;;;12.05;10.23;;;;;;;;;;5020510;28;20030;-74
2022/08/23 04:52:16;;;;;;;16.92;11.90;;;;;;;;;;5021472;28;20462;-74
2022/08/23 04:54:41;;;;;;;14.52;11.15;;;;;;;;;;5002625;28;20428;-75
2022/08/23 04:57:07;;;;;;;12.80;11.35;;;;;;;;;;5022918;28;20029;-74
2022/08/23 04:59:32;;;;;;;12.48;11.05;;;;;;;;;;5019938;28;20030;-74
2022/08/23 05:01:57;;;;;;;12.40;11.20;;;;;;;;;;5020742;28;20115;-74
2022/08/23 05:04:23;;;;;;;14.05;11.75;;;;;;;;;;5004428;28;20505;-74
2022/08/23 05:06:48;;;;;;;14.63;12.35;;;;;;;;;;5001994;28;20532;-75
2022/08/23 05:09:14;;;;;;;14.70;12.60;;;;;;;;;;5021036;28;20043;-74
2022/08/23 05:11:39;;;;;;;13.48;11.95;;;;;;;;;;5021253;28;20029;-74
2022/08/23 05:14:05;;;;;;;13.27;11.90;;;;;;;;;;5020327;28;20033;-74
2022/08/23 05:16:30;;;;;;;12.93;11.48;;;;;;;;;;5020312;28;20021;-74
2022/08/23 05:18:56;;;;;;;13.82;12.43;;;;;;;;;;5019412;28;20457;-76
2022/08/23 05:21:22;;;;;;;13.85;12.55;;;;;;;;;;5020009;28;20506;-75
2022/08/23 05:23:48;;;;;;;13.82;12.40;;;;;;;;;;5020030;28;20037;-74
2022/08/23 05:26:13;;;;;;;14.80;13.23;;;;;;;;;;5019661;28;20055;-74
2022/08/23 05:28:40;;;;;;;13.77;12.48;;;;;;;;;;5019247;28;20048;-75
2022/08/23 05:31:08;;;;;;;15.75;12.73;;;;;;;;;;5020943;28;20039;-75
2022/08/23 05:33:34;;;;;;;14.93;12.25;;;;;;;;;;5021055;28;20033;-75
2022/08/23 05:36:01;;;;;;;15.75;13.68;;;;;;;;;;5019477;28;20049;-75
2022/08/23 05:38:26;;;;;;;15.10;13.63;;;;;;;;;;5002867;28;20482;-74
2022/08/23 05:40:52;;;;;;;16.55;14.85;;;;;;;;;;5020963;28;20086;-76
2022/08/23 05:43:18;;;;;;;16.90;13.43;;;;;;;;;;5021046;28;20049;-75
2022/08/23 05:45:43;;;;;;;16.88;14.30;;;;;;;;;;5019821;28;20082;-75
2022/08/23 05:48:09;;;;;;;16.27;14.57;;;;;;;;;;5020174;28;20174;-75
2022/08/23 05:50:35;;;;;;;17.63;15.73;;;;;;;;;;5020777;28;20025;-75
2022/08/23 05:53:01;;;;;;;18.27;15.23;;;;;;;;;;5019382;28;20097;-75
2022/08/23 05:55:26;;;;;;;16.23;14.30;;;;;;;;;;5018657;28;20429;-75
2022/08/23 05:57:52;;;;;;;17.48;15.32;;;;;;;;;;5021045;28;20017;-74
2022/08/23 06:00:17;;;;;;;17.50;14.73;;;;;;;;;;5019959;28;20476;-75
2022/08/23 06:02:43;;;;;;;19.13;15.85;;;;;;;;;;5017772;28;20029;-76
2022/08/23 06:05:08;;;;;;;19.67;17.15;;;;;;;;;;5020283;28;20126;-74
2022/08/23 06:07:34;;;;;;;16.63;14.68;;;;;;;;;;5019615;28;20044;-77
2022/08/23 06:10:00;;;;;;;14.15;12.85;;;;;;;;;;5019942;28;20037;-75
2022/08/23 06:12:25;;;;;;;14.35;13.00;;;;;;;;;;5021070;28;20025;-75
2022/08/23 06:14:50;;;;;;;14.45;12.77;;;;;;;;;;5019511;28;20040;-76
2022/08/23 06:17:16;;;;;;;11.82;10.70;;;;;;;;;;5020264;28;20025;-75
2022/08/23 06:19:41;;;;;;;10.50;9.50;;;;;;;;;;5010767;28;20038;-74
2022/08/23 06:22:06;;;;;;;8.50;7.70;;;;;;;;;;5019629;28;20037;-76
2022/08/23 06:24:32;;;;;;;8.38;7.57;;;;;;;;;;5019094;28;20026;-74
2022/08/23 06:26:58;;;;;;;11.38;10.35;;;;;;;;;;5019720;28;20432;-76
2022/08/23 06:29:23;;;;;;;11.90;10.80;;;;;;;;;;5019821;28;20025;-75
2022/08/23 06:31:50;;;;;;;12.77;11.13;;;;;;;;;;5017541;28;20033;-76
2022/08/23 06:34:23;;;;;;;11.07;9.95;;;;;;;;;;5008027;28;20060;-74
2022/08/23 06:36:53;;;;;;;11.55;10.30;;;;;;;;;;5006055;28;20039;-75
2022/08/23 06:39:20;;;;;;;10.82;9.82;;;;;;;;;;5006868;28;20461;-75
2022/08/23 06:41:47;;;;;;;10.68;8.95;;;;;;;;;;5007037;28;20041;-76
2022/08/23 06:44:13;;;;;;;9.43;8.60;;;;;;;;;;5006911;28;20083;-75
2022/08/23 06:46:38;;;;;;;11.38;9.27;;;;;;;;;;5007607;28;20746;-74
2022/08/23 06:49:05;;;;;;;10.05;8.18;;;;;;;;;;5008463;28;20033;-75
2022/08/23 06:51:32;;;;;;;8.20;7.43;;;;;;;;;;5005912;28;20448;-75
2022/08/23 06:53:58;;;;;;;7.40;6.72;;;;;;;;;;5007555;28;20037;-75
2022/08/23 06:56:24;;;;;;;8.38;7.65;;;;;;;;;;5009881;28;20464;-74
2022/08/23 06:58:51;;;;;;;8.73;7.97;;;;;;;;;;5010427;28;20104;-74
2022/08/23 07:01:28;;;;;;;9.65;8.27;;;;;;;;;;5020943;28;20033;-75
2022/08/23 07:03:54;;;;;;;7.95;7.20;;;;;;;;;;5023036;28;20445;-74
2022/08/23 07:06:20;;;;;;;7.90;7.13;;;;;;;;;;5013098;28;20068;-75
2022/08/23 07:08:46;;;;;;;8.98;7.55;;;;;;;;;;5010584;28;20043;-75
2022/08/23 07:11:11;;;;;;;7.65;6.90;;;;;;;;;;5011033;28;20583;-74
2022/08/23 07:13:36;;;;;;;8.68;7.15;;;;;;;;;;5010027;28;20132;-74
2022/08/23 07:16:02;;;;;;;8.73;7.57;;;;;;;;;;5010075;28;20058;-75
2022/08/23 07:18:28;;;;;;;8.02;6.43;;;;;;;;;;5010178;28;20030;-74
2022/08/23 07:20:57;;;;;;;7.93;7.15;;;;;;;;;;5009859;28;20052;-75
2022/08/23 07:23:22;;;;;;;;;;;;;;;;;;5011258;28;20025;-73
2022/08/23 07:25:48;;;;;;;8.77;6.90;;;;;;;;;;5008612;28;19913;-75
2022/08/23 07:28:13;;;;;;;8.13;7.43;;;;;;;;;;5012059;28;20095;-75
2022/08/23 07:30:38;;;;;;;8.18;7.03;;;;;;;;;;5023538;28;20021;-75
2022/08/23 07:33:04;;;;;;;7.60;6.90;;;;;;;;;;5022187;28;20029;-75
2022/08/23 07:35:30;;;;;;;7.15;6.55;;;;;;;;;;5023332;28;20033;-76
2022/08/23 07:37:56;;;;;;;6.90;6.00;;;;;;;;;;5017910;28;20381;-75
2022/08/23 07:40:21;;;;;;;6.30;5.80;;;;;;;;;;5019037;28;20021;-75
2022/08/23 07:42:46;;;;;;;6.95;6.35;;;;;;;;;;5022269;28;20050;-77
2022/08/23 07:45:12;;;;;;;6.63;6.07;;;;;;;;;;5023986;28;20087;-76
2022/08/23 07:47:38;;;;;;;6.82;6.22;;;;;;;;;;5024220;28;20440;-74
2022/08/23 07:50:03;;;;;;;6.68;6.07;;;;;;;;;;5022428;28;20034;-73
2022/08/23 07:52:29;;;;;;;7.75;7.05;;;;;;;;;;5022676;28;20025;-73
2022/08/23 07:54:54;;;;;;;7.35;6.75;;;;;;;;;;5020950;28;20029;-75
2022/08/23 07:57:19;;;;;;;7.25;6.68;;;;;;;;;;5021226;28;20423;-75
2022/08/23 07:59:45;;;;;;;7.25;6.65;;;;;;;;;;5022401;28;20364;-75
2022/08/23 08:02:10;;;;;;;7.95;6.38;;;;;;;;;;5009823;28;20124;-76
2022/08/23 08:04:36;;;;;;;7.93;7.15;;;;;;;;;;5010506;28;20087;-76
2022/08/23 08:07:01;;;;;;;8.48;7.70;;;;;;;;;;5008036;28;20036;-76
2022/08/23 08:09:26;;;;;;;11.63;9.45;;;;;;;;;;5009267;28;20025;-77
2022/08/23 08:11:52;;;;;;;11.18;10.07;;;;;;;;;;5009594;28;20356;-74
2022/08/23 08:14:17;;;;;;;14.15;12.95;;;;;;;;;;5008570;28;20040;-75
2022/08/23 08:16:44;;;;;;;14.93;13.48;;;;;;;;;;5007803;28;20053;-75
2022/08/23 08:19:10;;;;;;;13.65;12.30;;;;;;;;;;5010318;28;20044;-79
2022/08/23 08:21:38;;;;;;;14.30;12.30;;;;;;;;;;5010043;28;20494;-78
2022/08/23 08:24:04;;;;;;;13.45;12.07;;;;;;;;;;5017519;28;20029;-78
2022/08/23 08:26:29;;;;;;;15.60;14.18;;;;;;;;;;5022132;28;20040;-74
2022/08/23 08:28:55;;;;;;;14.27;13.07;;;;;;;;;;5014265;28;20025;-76
2022/08/23 08:31:21;;;;;;;15.57;14.18;;;;;;;;;;5009107;28;20036;-77
2022/08/23 08:33:47;;;;;;;16.40;14.90;;;;;;;;;;5010231;28;20014;-77
2022/08/23 08:36:27;;;;;;;15.80;14.40;;;;;;;;;;5010010;28;20708;-78
2022/08/23 08:38:53;;;;;;;16.45;14.95;;;;;;;;;;5011137;28;20030;-78
2022/08/23 08:41:23;;;;;;;15.13;13.73;;;;;;;;;;5014853;28;20033;-77
2022/08/23 08:44:02;;;;;;;14.32;12.93;;;;;;;;;;5019739;28;20330;-76
2022/08/23 08:46:34;;;;;;;14.38;13.07;;;;;;;;;;5018142;28;20033;-77
2022/08/23 08:49:00;;;;;;;14.65;13.35;;;;;;;;;;5011678;28;20506;-77
2022/08/23 08:51:29;;;;;;;14.00;12.73;;;;;;;;;;5008572;28;20048;-78
2022/08/23 08:53:55;;;;;;;16.80;15.30;;;;;;;;;;5016566;28;20029;-76
2022/08/23 08:56:23;;;;;;;16.70;15.18;;;;;;;;;;5020570;28;20377;-77
2022/08/23 08:58:58;;;;;;;16.25;14.75;;;;;;;;;;5019612;28;20091;-78
2022/08/23 09:01:25;;;;;;;16.23;14.55;;;;;;;;;;5020463;28;20063;-78
2022/08/23 09:03:50;;;;;;;15.82;14.43;;;;;;;;;;4994746;28;20028;-77
2022/08/23 09:06:42;;;;;;;15.88;14.18;;;;;;;;;;5023822;28;20029;-77
2022/08/23 09:09:10;;;;;;;14.55;13.15;;;;;;;;;;4968805;28;20659;-76
2022/08/23 09:11:48;;;;;;;14.43;13.02;;;;;;;;;;4966618;28;20390;-76
2022/08/23 09:14:42;;;;;;;13.20;12.07;;;;;;;;;;4968970;28;20053;-78
2022/08/23 09:17:18;;;;;;;14.20;12.82;;;;;;;;;;4953627;28;20050;-75
2022/08/23 09:19:44;;;;;;;16.70;12.90;;;;;;;;;;4967515;28;20046;-78
2022/08/23 09:22:12;;;;;;;14.68;13.13;;;;;;;;;;4967495;28;20350;-78
2022/08/23 09:24:38;;;;;;;14.30;13.00;;;;;;;;;;4965141;28;20027;-76
2022/08/23 09:27:04;;;;;;;14.63;13.23;;;;;;;;;;4959379;28;20035;-77
2022/08/23 09:29:31;;;;;;;14.40;13.00;;;;;;;;;;4956090;28;20579;-76
2022/08/23 09:32:01;;;;;;;14.43;13.13;;;;;;;;;;4949766;28;20341;-78
2022/08/23 09:34:33;;;;;;;14.52;13.23;;;;;;;;;;4957790;28;20051;-78
2022/08/23 09:37:11;;;;;;;15.30;13.88;;;;;;;;;;4963420;28;20117;-76
2022/08/23 09:39:38;;;;;;;14.00;12.70;;;;;;;;;;4968508;28;20056;-76
2022/08/23 09:42:07;;;;;;;14.07;12.77;;;;;;;;;;4967906;28;20074;-76
2022/08/23 09:44:32;;;;;;;;;;;;;;;;;;4966001;28;20114;-77
2022/08/23 09:47:24;;;;;;;12.83;11.73;;;;;;;;;;5007344;28;19913;-75
2022/08/23 09:49:50;;;;;;;13.07;11.85;;;;;;;;;;5005732;28;20417;-77
2022/08/23 09:52:34;;;;;;;14.05;12.80;;;;;;;;;;5007863;28;20448;-76
2022/08/23 09:55:01;;;;;;;13.80;12.50;;;;;;;;;;5009011;28;20029;-76
2022/08/23 09:57:28;;;;;;;11.80;10.80;;;;;;;;;;5019098;28;20033;-76
2022/08/23 09:59:59;;;;;;;13.52;12.10;;;;;;;;;;5007856;28;20357;-75
2022/08/23 10:02:29;;;;;;;12.07;10.98;;;;;;;;;;5009122;28;20361;-75
2022/08/23 10:05:26;;;;;;;11.48;10.27;;;;;;;;;;5019930;28;20017;-75
2022/08/23 10:07:53;;;;;;;12.27;11.02;;;;;;;;;;4971783;28;20367;-76
2022/08/23 10:10:26;;;;;;;12.13;10.82;;;;;;;;;;4964755;28;20049;-76
2022/08/23 10:12:53;;;;;;;11.48;10.38;;;;;;;;;;4970151;28;20052;-76
2022/08/23 10:15:20;;;;;;;12.45;11.35;;;;;;;;;;4978760;28;20030;-76
2022/08/23 10:17:51;;;;;;;12.07;11.07;;;;;;;;;;4979292;28;20038;-75
2022/08/23 10:20:25;;;;;;;12.57;11.48;;;;;;;;;;4979370;28;20046;-74
2022/08/23 10:22:54;;;;;;;11.98;11.05;;;;;;;;;;4979711;28;20421;-75
2022/08/23 10:25:32;;;;;;;12.43;11.23;;;;;;;;;;4968736;28;20046;-75
2022/08/23 10:31:18;;;;;;;11.95;10.85;;;;;;;;;;4981958;28;20393;-76
2022/08/23 10:33:46;;;;;;;12.05;11.05;;;;;;;;;;4982827;28;20030;-76
2022/08/23 10:36:11;;;;;;;11.13;10.10;;;;;;;;;;4981921;28;20043;-75
2022/08/23 10:38:39;;;;;;;11.10;10.10;;;;;;;;;;4976913;28;20256;-77
2022/08/23 10:41:15;;;;;;;10.07;9.20;;;;;;;;;;4977289;28;20038;-75
2022/08/23 10:43:50;;;;;;;10.48;9.57;;;;;;;;;;4993058;28;20061;-76
2022/08/23 10:46:16;;;;;;;9.52;8.73;;;;;;;;;;5011204;28;20372;-74
2022/08/23 10:48:42;;;;;;;9.38;8.57;;;;;;;;;;5017518;28;20827;-75
2022/08/23 10:51:08;;;;;;;10.27;9.27;;;;;;;;;;5021235;28;20115;-74
2022/08/23 10:53:45;;;;;;;9.05;8.27;;;;;;;;;;5021644;28;20413;-75
2022/08/23 10:56:15;;;;;;;9.63;8.82;;;;;;;;;;5024067;28;20021;-73
2022/08/23 10:58:51;;;;;;;9.32;8.48;;;;;;;;;;5022750;28;20080;-75
2022/08/23 11:01:22;;;;;;;8.98;8.27;;;;;;;;;;5021005;28;20433;-74
2022/08/23 11:03:50;;;;;;;8.00;7.30;;;;;;;;;;5012996;28;20032;-75
2022/08/23 11:06:22;;;;;;;8.32;7.53;;;;;;;;;;5010702;28;20052;-74
2022/08/23 11:08:47;;;;;;;8.10;7.30;;;;;;;;;;5011450;28;20033;-71
2022/08/23 11:11:31;;;;;;;7.93;7.13;;;;;;;;;;5022262;28;20029;-74
2022/08/23 11:13:58;;;;;;;8.40;7.60;;;;;;;;;;5022960;28;20087;-75
2022/08/23 11:16:27;;;;;;;8.13;7.45;;;;;;;;;;5022148;28;20113;-75
2022/08/23 11:18:53;;;;;;;8.43;7.55;;;;;;;;;;5021159;28;20033;-75
2022/08/23 11:21:24;;;;;;;7.22;6.53;;;;;;;;;;5022587;28;20108;-75
2022/08/23 11:23:58;;;;;;;7.97;7.28;;;;;;;;;;5012322;28;20128;-74
2022/08/23 11:26:35;;;;;;;8.43;7.68;;;;;;;;;;5010595;28;20425;-73
2022/08/23 11:29:06;;;;;;;8.38;7.57;;;;;;;;;;5021713;28;20052;-73
2022/08/23 11:31:32;;;;;;;7.95;7.25;;;;;;;;;;5022324;28;20033;-74
2022/08/23 11:34:05;;;;;;;8.40;7.72;;;;;;;;;;5023342;28;20021;-73
2022/08/23 11:36:31;;;;;;;8.10;7.38;;;;;;;;;;5021027;28;20724;-76
2022/08/23 11:38:57;;;;;;;8.23;7.50;;;;;;;;;;5011813;28;20076;-75
2022/08/23 11:41:27;;;;;;;7.75;7.15;;;;;;;;;;5009799;28;20437;-75
2022/08/23 11:43:55;;;;;;;8.50;7.90;;;;;;;;;;5011221;28;20033;-74
2022/08/23 11:46:24;;;;;;;8.07;7.30;;;;;;;;;;5014879;28;20022;-73
2022/08/23 11:49:08;;;;;;;8.45;7.75;;;;;;;;;;5022663;28;20037;-73
2022/08/23 11:51:43;;;;;;;9.02;7.50;;;;;;;;;;5020192;28;20025;-74
2022/08/23 11:54:19;;;;;;;8.68;7.68;;;;;;;;;;5009791;28;20030;-74
2022/08/23 11:57:03;;;;;;;7.20;6.60;;;;;;;;;;4996878;28;20368;-76
2022/08/23 11:59:47;;;;;;;9.18;8.15;;;;;;;;;;5023549;28;20036;-73
2022/08/23 12:02:51;;;;;;;8.40;7.60;;;;;;;;;;5022828;28;20472;-75
2022/08/23 12:05:19;;;;;;;7.25;6.65;;;;;;;;;;4978928;28;20037;-75
2022/08/23 12:07:51;;;;;;;8.02;7.43;;;;;;;;;;5019497;28;20064;-74
2022/08/23 12:10:21;;;;;;;9.10;7.35;;;;;;;;;;5007782;28;20079;-74
2022/08/23 12:13:07;;;;;;;8.52;7.22;;;;;;;;;;5010555;28;21777;-73
2022/08/23 12:15:51;;;;;;;7.57;6.97;;;;;;;;;;5018626;28;20156;-73
2022/08/23 12:18:16;;;;;;;7.93;7.13;;;;;;;;;;5020223;28;20025;-74
2022/08/23 12:20:42;;;;;;;8.25;7.55;;;;;;;;;;5014349;28;20037;-73
2022/08/23 12:23:12;;;;;;;8.25;7.45;;;;;;;;;;5010056;28;20056;-75
2022/08/23 12:25:38;;;;;;;8.32;7.63;;;;;;;;;;5011479;28;20338;-73
2022/08/23 12:28:28;;;;;;;8.95;8.07;;;;;;;;;;5014617;28;20025;-73
2022/08/23 12:31:00;;;;;;;7.60;6.90;;;;;;;;;;5007663;28;20124;-73
2022/08/23 12:33:33;;;;;;;7.03;6.43;;;;;;;;;;5020390;28;20025;-74
2022/08/23 12:36:08;;;;;;;6.65;5.93;;;;;;;;;;5019167;28;20018;-74
2022/08/23 12:38:49;;;;;;;5.88;5.35;;;;;;;;;;5019079;28;20040;-74
2022/08/23 12:41:19;;;;;;;6.15;5.50;;;;;;;;;;5022574;28;20400;-74
2022/08/23 12:43:55;;;;;;;6.68;5.40;;;;;;;;;;5020105;28;20025;-75
2022/08/23 12:46:31;;;;;;;6.78;6.03;;;;;;;;;;5022197;28;20025;-76
2022/08/23 12:48:57;;;;;;;5.93;5.50;;;;;;;;;;5022021;28;20353;-73
2022/08/23 12:51:22;;;;;;;6.72;6.22;;;;;;;;;;5022342;28;20013;-73
2022/08/23 12:53:48;;;;;;;7.05;6.45;;;;;;;;;;5021549;28;20079;-74
2022/08/23 12:56:16;;;;;;;7.15;6.45;;;;;;;;;;5022359;28;20029;-73
2022/08/23 12:58:44;;;;;;;6.82;6.22;;;;;;;;;;5020674;28;20041;-74
2022/08/23 13:01:20;;;;;;;7.80;7.20;;;;;;;;;;5022393;28;20021;-73
2022/08/23 13:03:48;;;;;;;8.23;7.53;;;;;;;;;;5021798;28;20429;-73
2022/08/23 13:06:15;;;;;;;9.10;8.20;;;;;;;;;;5020676;28;20035;-74
2022/08/23 13:08:40;;;;;;;8.77;8.07;;;;;;;;;;5020605;28;20029;-75
2022/08/23 13:11:06;;;;;;;9.45;8.50;;;;;;;;;;5020415;28;20404;-75
2022/08/23 13:13:32;;;;;;;10.02;9.10;;;;;;;;;;5020840;28;20433;-74
2022/08/23 13:15:59;;;;;;;9.98;9.07;;;;;;;;;;5022585;28;20044;-74
2022/08/23 13:18:27;;;;;;;10.05;9.15;;;;;;;;;;5021182;28;20029;-74
2022/08/23 13:21:11;;;;;;;9.32;8.52;;;;;;;;;;5019647;28;20037;-72
2022/08/23 13:23:37;;;;;;;9.32;8.52;;;;;;;;;;5019202;28;20395;-74
2022/08/23 13:26:20;;;;;;;9.85;9.05;;;;;;;;;;5020820;28;20036;-73
2022/08/23 13:29:04;;;;;;;8.35;7.65;;;;;;;;;;5022469;28;20140;-74
2022/08/23 13:31:50;;;;;;;7.35;6.78;;;;;;;;;;5020364;28;20041;-74
2022/08/23 13:34:35;;;;;;;7.30;6.70;;;;;;;;;;5019997;28;20029;-74
2022/08/23 13:37:02;;;;;;;7.47;6.88;;;;;;;;;;5020197;28;20025;-75
2022/08/23 13:39:29;;;;;;;8.73;7.93;;;;;;;;;;5020014;28;20065;-77
2022/08/23 13:41:54;;;;;;;8.60;7.90;;;;;;;;;;5000644;28;20534;-72
2022/08/23 13:44:20;;;;;;;10.38;8.85;;;;;;;;;;5019812;28;20034;-73
2022/08/23 13:46:47;;;;;;;9.75;8.95;;;;;;;;;;5019805;28;20037;-74
2022/08/23 13:49:15;;;;;;;10.50;9.70;;;;;;;;;;5019819;28;20095;-74
2022/08/23 13:51:42;;;;;;;10.40;9.50;;;;;;;;;;5019448;28;20057;-74
2022/08/23 13:54:11;;;;;;;10.73;9.82;;;;;;;;;;5019222;28;20586;-73
2022/08/23 13:56:46;;;;;;;11.50;10.50;;;;;;;;;;5019675;28;20034;-74
2022/08/23 13:59:30;;;;;;;10.63;9.63;;;;;;;;;;5019162;28;20044;-73
2022/08/23 14:01:56;;;;;;;10.25;9.35;;;;;;;;;;5020342;28;20018;-74
2022/08/23 14:04:21;;;;;;;9.07;8.15;;;;;;;;;;5021916;28;20031;-73
2022/08/23 14:06:47;;;;;;;9.07;8.27;;;;;;;;;;5025681;28;20087;-73
2022/08/23 14:09:12;;;;;;;9.57;8.75;;;;;;;;;;5027004;28;20044;-73
2022/08/23 14:11:38;;;;;;;9.05;8.25;;;;;;;;;;5026035;28;20033;-74
2022/08/23 14:14:04;;;;;;;9.88;9.07;;;;;;;;;;5025514;28;20407;-72
2022/08/23 14:16:30;;;;;;;9.55;8.65;;;;;;;;;;5026815;28;20108;-73
2022/08/23 14:18:56;;;;;;;10.18;9.27;;;;;;;;;;5026721;28;20038;-73
2022/08/23 14:21:21;;;;;;;10.38;9.57;;;;;;;;;;5026020;28;20028;-74
2022/08/23 14:23:47;;;;;;;10.80;9.93;;;;;;;;;;5025883;28;20033;-75
2022/08/23 14:26:16;;;;;;;10.75;9.85;;;;;;;;;;5024619;28;20033;-72
2022/08/23 14:28:42;;;;;;;10.85;9.90;;;;;;;;;;5025408;28;20033;-73
2022/08/23 14:31:07;;;;;;;11.65;10.63;;;;;;;;;;5024513;28;20033;-74
2022/08/23 14:33:33;;;;;;;11.35;10.40;;;;;;;;;;5025988;28;20074;-73
2022/08/23 14:35:58;;;;;;;11.15;10.25;;;;;;;;;;5025551;28;20064;-73
2022/08/23 14:38:23;;;;;;;11.32;10.40;;;;;;;;;;5026115;28;20349;-74
2022/08/23 14:40:51;;;;;;;10.85;9.95;;;;;;;;;;5025383;28;20388;-74
2022/08/23 14:43:17;;;;;;;10.27;9.43;;;;;;;;;;5027761;28;20317;-74